Terminal Aerodrome Forecast
Issued by NWS

Home | Current Version | Previous Version | Text Only | Print | Product List | Glossary On
Versions: 1 2 3 4 5 6 7 8 9 10 11 12 13 14 15 16 17
606
FTUS41 KPHI 230933 AAB
TAFPNE
TAF AMD
KPNE 230933Z 2310/2406 14004KT P6SM VCTS OVC015CB WS020/21035KT
      TEMPO 2310/2311 5SM TSRA OVC015CB
     FM231100 18007KT 5SM SHRA OVC015 WS020/20040KT
     FM231800 24007KT 5SM SHRA OVC015
     FM231900 25007KT P6SM VCSH BKN020
     FM232100 27011KT P6SM BKN040=

USA.gov is the U.S. government's official web portal to all federal, state and local government web resources and services.